Time;durP1;ratioP1;P1;durP2;ratioP2;P2;SDS_P1;SDS_P2;PMS_P1;PMS_P2;Temp;Humidity;BMP_temperature;BMP_pressure;BME280_temperature;BME280_humidity;BME280_pressure;Samples;Min_cycle;Max_cycle;Signal;HPM_P1;HPM_P2
2022/01/14 00:00:35;;;;;;;19.85;9.80;;;;;;;2.89;69.45;101333.22;4406145;32;34425;-62
2022/01/14 00:03:02;;;;;;;20.10;10.10;;;;;;;3.35;67.18;101328.44;4404515;32;33365;-64
2022/01/14 00:05:30;;;;;;;21.62;10.18;;;;;;;3.10;68.63;101337.03;4408277;32;34299;-61
2022/01/14 00:07:58;;;;;;;21.37;10.85;;;;;;;2.51;70.69;101333.75;4403049;32;33631;-62
2022/01/14 00:10:30;;;;;;;23.75;10.52;;;;;;;2.50;70.90;101333.59;4396786;32;33854;-63
2022/01/14 00:13:06;;;;;;;21.35;9.35;;;;;;;2.77;70.28;101325.25;4396271;32;33408;-62
2022/01/14 00:15:35;;;;;;;23.20;10.65;;;;;;;2.50;71.62;101321.69;4399377;32;34633;-62
2022/01/14 00:18:03;;;;;;;21.20;11.20;;;;;;;2.69;71.27;101334.69;4379252;32;32024;-63
2022/01/14 00:20:31;;;;;;;21.83;9.75;;;;;;;2.56;71.53;101324.87;4406921;32;33670;-62
2022/01/14 00:23:00;;;;;;;21.25;10.15;;;;;;;2.84;70.70;101325.09;4389751;32;34406;-64
2022/01/14 00:33:36;;;;;;;22.00;9.52;;;;;;;3.79;67.94;101312.09;4399860;32;34171;-61
2022/01/14 00:36:04;;;;;;;22.00;9.23;;;;;;;3.50;68.85;101312.75;4417925;32;34363;-62
2022/01/14 00:38:32;;;;;;;22.55;9.80;;;;;;;3.79;67.68;101312.09;4403882;32;33647;-64
2022/01/14 00:41:00;;;;;;;18.50;8.70;;;;;;;4.28;65.64;101306.47;4406606;32;34146;-65
2022/01/14 00:43:28;;;;;;;23.17;9.38;;;;;;;4.04;66.39;101306.00;4408140;32;34315;-64
2022/01/14 00:45:56;;;;;;;24.05;9.15;;;;;;;4.08;66.16;101308.06;4409150;32;34611;-62
2022/01/14 00:48:24;;;;;;;17.15;8.07;;;;;;;4.04;66.25;101297.41;4407331;32;33843;-64
2022/01/14 00:50:52;;;;;;;18.65;8.20;;;;;;;4.11;66.04;101303.25;4406821;32;34584;-62
2022/01/14 00:53:20;;;;;;;21.33;7.87;;;;;;;4.12;65.55;101299.91;4408749;32;33365;-64
2022/01/14 00:55:55;;;;;;;20.52;8.75;;;;;;;4.12;65.81;101293.88;4379310;32;32225;-62
2022/01/14 01:01:08;;;;;;;19.33;8.23;;;;;;;3.94;66.13;101288.84;4403333;32;34149;-61
2022/01/14 01:03:37;;;;;;;18.27;7.93;;;;;;;3.92;66.29;101290.34;4407423;32;35321;-63
2022/01/14 01:06:04;;;;;;;20.55;8.90;;;;;;;3.99;65.82;101281.56;4390809;32;33857;-61
2022/01/14 01:08:34;;;;;;;18.87;8.25;;;;;;;3.90;66.04;101280.69;4392485;32;33994;-63
2022/01/14 01:11:04;;;;;;;19.95;9.55;;;;;;;3.78;66.30;101284.66;4400184;32;34479;-64
2022/01/14 01:13:36;;;;;;;19.33;8.63;;;;;;;3.72;66.24;101284.97;4393683;32;31616;-62
2022/01/14 01:16:04;;;;;;;21.40;8.40;;;;;;;3.90;65.71;101284.19;4398132;32;34752;-64
2022/01/14 01:18:32;;;;;;;20.65;8.48;;;;;;;4.00;65.18;101288.50;4403441;32;34544;-64
2022/01/14 01:21:01;;;;;;;18.23;8.20;;;;;;;3.90;65.33;101285.81;4395277;32;34462;-64
2022/01/14 01:23:30;;;;;;;19.77;9.07;;;;;;;3.41;66.76;101283.69;4386545;32;33327;-62
2022/01/14 01:26:10;;;;;;;19.30;8.95;;;;;;;3.62;66.09;101288.31;4416094;32;34000;-64
2022/01/14 01:28:53;;;;;;;22.13;9.32;;;;;;;3.12;67.32;101286.88;4405208;32;34366;-62
2022/01/14 01:31:36;;;;;;;23.83;9.35;;;;;;;2.72;69.58;101294.09;4405612;32;34110;-62
2022/01/14 01:34:16;;;;;;;19.67;8.88;;;;;;;2.74;69.73;101282.34;4408403;32;34291;-64
2022/01/14 01:36:49;;;;;;;23.85;9.20;;;;;;;2.46;70.81;101286.34;4393263;32;34036;-64
2022/01/14 01:39:19;;;;;;;19.40;8.50;;;;;;;3.37;67.41;101268.78;4397731;32;33839;-63
2022/01/14 01:41:53;;;;;;;22.50;9.63;;;;;;;3.60;66.46;101271.00;4407710;32;33111;-63
2022/01/14 01:44:22;;;;;;;20.70;9.07;;;;;;;3.19;67.88;101270.44;4396151;32;33214;-62
2022/01/14 01:46:51;;;;;;;24.30;9.25;;;;;;;2.67;70.10;101273.91;4406053;32;33407;-64
2022/01/14 01:49:22;;;;;;;20.60;9.23;;;;;;;3.13;67.95;101268.22;4406453;32;34391;-63
2022/01/14 01:51:51;;;;;;;21.00;9.68;;;;;;;2.35;70.58;101267.34;4394840;32;34280;-63
2022/01/14 01:54:19;;;;;;;24.37;9.63;;;;;;;2.41;69.98;101267.06;4413155;32;34030;-62
2022/01/14 01:56:49;;;;;;;23.23;9.90;;;;;;;2.38;70.99;101259.09;4377671;32;33761;-63
2022/01/14 01:59:21;;;;;;;19.70;9.73;;;;;;;2.24;71.14;101264.47;4403485;32;35380;-63
2022/01/14 02:01:49;;;;;;;21.15;10.00;;;;;;;1.81;72.52;101257.53;4404353;32;34442;-63
2022/01/14 02:04:17;;;;;;;22.10;9.73;;;;;;;1.82;72.47;101259.38;4403584;32;33522;-62
2022/01/14 02:06:44;;;;;;;23.15;10.15;;;;;;;2.55;70.10;101254.03;4409515;32;33813;-62
2022/01/14 02:09:12;;;;;;;25.42;10.85;;;;;;;2.66;69.51;101251.63;4407995;32;34774;-62
2022/01/14 02:11:40;;;;;;;25.73;10.32;;;;;;;3.01;67.60;101242.28;4391098;32;33604;-62
2022/01/14 02:14:25;;;;;;;24.15;10.60;;;;;;;3.22;66.74;101242.56;4404561;32;33338;-62
2022/01/14 02:19:42;;;;;;;32.10;15.52;;;;;;;3.21;66.44;101236.56;4408572;32;34753;-63
2022/01/14 02:22:14;;;;;;;26.98;11.40;;;;;;;3.11;67.02;101218.47;4394282;32;34768;-63
2022/01/14 02:27:12;;;;;;;25.77;11.57;;;;;;;1.87;72.21;101212.16;4394884;32;32418;-64
2022/01/14 02:29:40;;;;;;;26.55;12.60;;;;;;;2.67;68.97;101217.63;4404336;32;33967;-64
2022/01/14 02:32:08;;;;;;;26.90;11.38;;;;;;;2.54;68.34;101206.16;4394013;32;33733;-64
2022/01/14 02:34:38;;;;;;;27.48;11.45;;;;;;;2.69;68.89;101208.44;4382125;32;33310;-63
2022/01/14 02:37:06;;;;;;;29.83;12.35;;;;;;;2.44;69.85;101203.44;4389345;32;34530;-64
2022/01/14 02:39:34;;;;;;;30.58;12.70;;;;;;;3.03;68.08;101198.91;4394553;32;33878;-63
2022/01/14 02:42:02;;;;;;;24.37;10.45;;;;;;;3.11;68.00;101198.00;4407262;32;33889;-63
2022/01/14 02:44:32;;;;;;;23.62;10.48;;;;;;;2.14;70.90;101196.16;4407786;32;32915;-62
2022/01/14 02:47:05;;;;;;;22.20;11.48;;;;;;;1.51;74.81;101200.03;4388389;32;33567;-64
2022/01/14 02:49:34;;;;;;;26.08;11.38;;;;;;;1.34;75.51;101199.16;4391793;32;34596;-61
2022/01/14 02:52:04;;;;;;;27.02;10.77;;;;;;;2.09;72.85;101194.81;4405444;32;34417;-63
2022/01/14 02:54:41;;;;;;;22.80;10.43;;;;;;;2.17;72.23;101197.38;4409821;32;34203;-63
2022/01/14 02:57:09;;;;;;;25.83;11.40;;;;;;;2.30;71.58;101188.41;4397351;32;33906;-62
2022/01/14 02:59:38;;;;;;;26.58;10.70;;;;;;;1.99;73.09;101190.44;4377780;32;33801;-62
2022/01/14 03:02:09;;;;;;;23.08;10.00;;;;;;;2.45;71.35;101189.87;4405599;32;33772;-63
2022/01/14 03:04:41;;;;;;;21.75;10.35;;;;;;;2.02;73.20;101184.72;4402024;32;33141;-65
2022/01/14 03:07:09;;;;;;;26.62;11.77;;;;;;;2.17;72.85;101171.81;4401839;32;86545;-63
2022/01/14 03:09:37;;;;;;;23.60;10.75;;;;;;;1.65;74.95;101176.78;4403439;32;33825;-62
2022/01/14 03:12:06;;;;;;;25.17;10.55;;;;;;;2.00;73.35;101171.78;4396237;32;32324;-62
2022/01/14 03:14:34;;;;;;;25.48;11.40;;;;;;;2.17;72.88;101176.94;4390497;32;32954;-62
2022/01/14 03:17:02;;;;;;;29.48;12.90;;;;;;;2.29;71.90;101161.00;4404551;32;33661;-62
2022/01/14 03:19:30;;;;;;;28.15;11.90;;;;;;;1.82;73.09;101165.72;4401453;32;33925;-64
2022/01/14 03:22:17;;;;;;;22.45;10.35;;;;;;;1.30;75.47;101165.50;4407464;32;33666;-62
2022/01/14 03:27:13;;;;;;;24.50;11.60;;;;;;;1.86;72.81;101147.41;4407640;32;33611;-63
2022/01/14 03:29:40;;;;;;;27.87;11.40;;;;;;;2.01;72.25;101147.12;4407626;32;34527;-61
2022/01/14 03:32:08;;;;;;;23.87;10.00;;;;;;;1.94;72.55;101150.72;4407364;32;34546;-63
2022/01/14 03:34:36;;;;;;;24.65;11.05;;;;;;;2.25;72.60;101148.69;4407946;32;33391;-62
2022/01/14 03:37:04;;;;;;;25.77;10.82;;;;;;;2.15;72.53;101144.31;4406192;32;33601;-64
2022/01/14 03:39:32;;;;;;;26.80;11.38;;;;;;;2.54;70.90;101144.75;4390578;32;34030;-63
2022/01/14 03:42:00;;;;;;;25.05;10.75;;;;;;;2.11;73.36;101140.53;4397336;32;34511;-62
2022/01/14 03:44:27;;;;;;;29.85;12.60;;;;;;;2.81;70.01;101139.66;4408096;32;33662;-62
2022/01/14 03:46:55;;;;;;;25.20;11.88;;;;;;;2.79;70.02;101133.47;4408877;32;34647;-62
2022/01/14 03:49:22;;;;;;;27.75;11.10;;;;;;;2.71;70.53;101130.19;4406347;32;34030;-64
2022/01/14 03:51:50;;;;;;;27.37;10.98;;;;;;;2.48;71.52;101126.25;4407861;32;34531;-64
2022/01/14 03:54:18;;;;;;;23.30;10.02;;;;;;;2.47;71.96;101119.38;4405624;32;33776;-63
2022/01/14 03:56:45;;;;;;;23.73;9.77;;;;;;;2.57;71.69;101113.50;4372313;32;34360;-63
2022/01/14 03:59:13;;;;;;;23.75;10.95;;;;;;;2.45;72.91;101118.28;4407201;32;33935;-64
2022/01/14 04:01:40;;;;;;;25.00;10.63;;;;;;;2.49;72.54;101111.81;4411045;32;34072;-63
2022/01/14 04:04:08;;;;;;;24.65;9.90;;;;;;;2.20;73.52;101111.50;4402773;32;33769;-64
2022/01/14 04:06:35;;;;;;;27.95;11.02;;;;;;;1.61;76.59;101107.38;4416023;32;33677;-62
2022/01/14 04:09:03;;;;;;;30.20;11.30;;;;;;;1.69;76.51;101121.81;4407630;32;33949;-64
2022/01/14 04:11:33;;;;;;;30.75;10.70;;;;;;;1.98;75.48;101122.16;4390788;32;33780;-63
2022/01/14 04:15:36;;;;;;;28.58;11.90;;;;;;;2.11;75.01;101120.09;4378818;32;33389;-63
2022/01/14 04:16:57;;;;;;;28.38;11.95;;;;;;;2.71;72.83;101117.38;4403920;32;33687;-62
2022/01/14 04:19:26;;;;;;;27.83;12.20;;;;;;;2.25;74.55;101111.22;4378758;32;32378;-61
2022/01/14 04:21:54;;;;;;;23.02;11.70;;;;;;;2.30;74.24;101111.69;4410188;32;34432;-62
2022/01/14 04:24:21;;;;;;;24.27;9.93;;;;;;;1.61;77.22;101107.38;4405581;32;33200;-63
2022/01/14 04:26:49;;;;;;;22.75;9.10;;;;;;;1.76;77.22;101096.12;4390774;32;32894;-64
2022/01/14 04:29:16;;;;;;;24.67;11.68;;;;;;;2.09;76.00;101090.91;4405398;32;33811;-65
2022/01/14 04:31:44;;;;;;;28.42;11.55;;;;;;;2.77;72.78;101084.69;4389838;32;34476;-63
2022/01/14 04:34:14;;;;;;;26.98;14.00;;;;;;;2.84;72.29;101079.44;4390664;32;33403;-63
2022/01/14 04:36:44;;;;;;;25.05;12.75;;;;;;;2.90;71.84;101085.13;4407600;32;34554;-64
2022/01/14 04:39:12;;;;;;;26.70;11.65;;;;;;;3.01;71.65;101085.25;4408133;32;33856;-64
2022/01/14 04:41:39;;;;;;;24.27;10.38;;;;;;;3.05;70.84;101085.69;4407483;32;33971;-62
2022/01/14 04:44:07;;;;;;;22.40;10.73;;;;;;;2.99;71.15;101073.97;4406649;32;34090;-62
2022/01/14 04:49:08;;;;;;;24.50;11.48;;;;;;;2.35;73.64;101084.91;4401614;32;32238;-63
2022/01/14 04:51:38;;;;;;;20.70;10.57;;;;;;;3.01;71.23;101082.69;4396725;32;32352;-62
2022/01/14 04:54:05;;;;;;;28.83;12.75;;;;;;;2.95;71.25;101076.25;4396128;32;34217;-64
2022/01/14 04:56:33;;;;;;;27.85;11.80;;;;;;;3.26;70.44;101068.88;4406903;32;34633;-62
2022/01/14 04:59:01;;;;;;;22.75;10.18;;;;;;;3.62;68.75;101061.94;4406124;32;34074;-62
2022/01/14 05:01:29;;;;;;;22.42;10.48;;;;;;;2.18;73.89;101060.22;4407167;32;33943;-64
2022/01/14 05:03:58;;;;;;;21.35;9.40;;;;;;;2.94;71.88;101059.06;4387548;32;33252;-64
2022/01/14 05:06:27;;;;;;;25.88;11.98;;;;;;;2.09;74.25;101064.47;4407062;32;34813;-64
2022/01/14 05:08:54;;;;;;;27.67;11.15;;;;;;;2.04;74.17;101066.53;4406652;32;33896;-64
2022/01/14 05:11:36;;;;;;;24.33;11.27;;;;;;;1.43;76.95;101075.75;4408292;32;33826;-61
2022/01/14 05:14:04;;;;;;;25.35;12.63;;;;;;;1.80;75.67;101069.22;4406981;32;33334;-62
2022/01/14 05:16:31;;;;;;;31.48;12.13;;;;;;;1.58;76.50;101061.97;4406820;32;34025;-62
2022/01/14 05:18:59;;;;;;;31.40;13.57;;;;;;;2.10;74.66;101064.59;4394460;32;33884;-62
2022/01/14 05:21:26;;;;;;;39.63;15.50;;;;;;;1.26;78.17;101059.63;4407237;32;33950;-61
2022/01/14 05:23:56;;;;;;;28.95;12.23;;;;;;;1.34;77.17;101055.31;4406543;32;33939;-62
2022/01/14 05:26:23;;;;;;;28.10;11.93;;;;;;;1.34;77.88;101056.19;4405484;32;33833;-61
2022/01/14 05:28:51;;;;;;;26.65;11.70;;;;;;;1.79;76.09;101052.09;4406705;32;33823;-62
2022/01/14 05:31:18;;;;;;;29.27;14.18;;;;;;;1.93;75.95;101049.25;4391990;32;32293;-65
2022/01/14 05:33:47;;;;;;;28.00;11.27;;;;;;;1.93;74.91;101056.91;4405788;32;33199;-61
2022/01/14 05:36:18;;;;;;;30.00;14.63;;;;;;;1.69;75.61;101061.41;4409832;32;33557;-62
2022/01/14 05:38:46;;;;;;;31.65;11.35;;;;;;;2.33;73.72;101053.16;4407301;32;34775;-64
2022/01/14 05:41:18;;;;;;;26.05;11.48;;;;;;;1.20;77.88;101056.47;4410386;32;34271;-63
2022/01/14 05:43:46;;;;;;;29.98;12.50;;;;;;;1.61;76.73;101062.28;4382644;32;32240;-63
2022/01/14 05:46:13;;;;;;;28.27;11.20;;;;;;;1.29;77.63;101057.37;4408254;32;34609;-64
2022/01/14 05:48:41;;;;;;;30.33;12.15;;;;;;;1.23;77.21;101056.75;4407578;32;34545;-65
2022/01/14 05:51:08;;;;;;;26.30;11.88;;;;;;;0.85;79.10;101050.28;4411675;32;35033;-64
2022/01/14 05:53:36;;;;;;;32.00;13.32;;;;;;;1.03;79.02;101061.50;4407498;32;33268;-62
2022/01/14 05:56:04;;;;;;;30.37;12.60;;;;;;;1.30;77.58;101054.09;4394522;32;33337;-62
2022/01/14 05:58:31;;;;;;;28.95;12.32;;;;;;;0.97;79.29;101057.56;4408017;32;34065;-63
2022/01/14 06:00:59;;;;;;;31.52;12.98;;;;;;;0.95;79.55;101059.06;4407376;32;33878;-64
2022/01/14 06:03:27;;;;;;;31.37;14.98;;;;;;;0.94;79.47;101062.31;4398996;32;33619;-64
2022/01/14 06:05:55;;;;;;;32.55;13.07;;;;;;;0.55;80.80;101054.91;4406938;32;33790;-62
2022/01/14 06:08:23;;;;;;;26.95;11.12;;;;;;;1.32;78.90;101057.69;4408087;32;34695;-62
2022/01/14 06:10:50;;;;;;;28.60;12.37;;;;;;;0.94;79.39;101052.12;4408126;32;34755;-64
2022/01/14 06:13:18;;;;;;;28.80;13.32;;;;;;;1.63;76.32;101054.78;4396595;32;31731;-63
2022/01/14 06:15:45;;;;;;;23.40;10.95;;;;;;;1.96;75.28;101037.69;4406218;32;34273;-64
2022/01/14 06:18:13;;;;;;;26.45;11.63;;;;;;;1.65;77.36;101049.06;4407869;32;33833;-63
2022/01/14 06:20:40;;;;;;;24.77;12.43;;;;;;;2.09;74.42;101037.25;4405962;32;33595;-62
2022/01/14 06:23:08;;;;;;;30.20;12.37;;;;;;;2.66;72.68;101031.59;4408675;32;33575;-64
2022/01/14 06:25:36;;;;;;;28.55;13.20;;;;;;;2.22;73.87;101030.75;4409213;32;33893;-63
2022/01/14 06:28:04;;;;;;;28.45;13.07;;;;;;;2.70;71.94;101023.47;4406791;32;34530;-64
2022/01/14 06:30:31;;;;;;;27.27;11.45;;;;;;;2.93;71.31;101023.97;4402820;32;33903;-63
2022/01/14 06:32:59;;;;;;;22.67;10.68;;;;;;;3.43;68.99;101024.34;4391524;32;33677;-65
2022/01/14 06:35:27;;;;;;;26.58;12.35;;;;;;;3.03;70.60;101029.97;4382508;32;32053;-63
2022/01/14 06:37:57;;;;;;;22.95;11.00;;;;;;;3.40;69.20;101023.16;4405883;32;33631;-62
2022/01/14 06:40:25;;;;;;;21.15;10.05;;;;;;;2.94;70.81;101030.03;4406746;32;32991;-62
2022/01/14 06:42:53;;;;;;;25.90;11.43;;;;;;;2.68;72.19;101035.19;4389078;32;32760;-64
2022/01/14 06:45:22;;;;;;;25.05;11.40;;;;;;;2.51;72.38;101031.94;4402633;32;34382;-63
2022/01/14 06:47:52;;;;;;;24.08;11.02;;;;;;;3.14;70.10;101022.53;4410212;32;34416;-62
2022/01/14 06:50:21;;;;;;;29.40;11.93;;;;;;;3.04;69.92;101016.44;4409982;32;33881;-62
2022/01/14 06:52:49;;;;;;;24.55;12.80;;;;;;;3.02;70.24;101025.62;4406683;32;33127;-62
2022/01/14 06:55:17;;;;;;;26.17;11.77;;;;;;;2.52;72.54;101015.81;4407177;32;33698;-62
2022/01/14 06:57:45;;;;;;;21.40;9.85;;;;;;;2.83;71.32;101016.19;4406625;32;34796;-64
2022/01/14 07:00:14;;;;;;;22.65;10.13;;;;;;;3.06;70.55;101009.78;4395624;32;32258;-63
2022/01/14 07:02:42;;;;;;;22.60;10.57;;;;;;;3.05;70.70;101014.03;4407411;32;33485;-63
2022/01/14 07:05:10;;;;;;;19.60;8.00;;;;;;;3.00;71.06;101011.78;4380504;32;34299;-62
2022/01/14 07:07:39;;;;;;;18.90;8.70;;;;;;;3.12;71.10;101015.47;4405701;32;33698;-62
2022/01/14 07:10:09;;;;;;;19.95;8.50;;;;;;;2.87;72.86;101009.72;4393866;32;33846;-63
2022/01/14 07:12:40;;;;;;;21.60;8.00;;;;;;;3.08;72.00;100998.03;4405795;32;33507;-64
2022/01/14 07:15:11;;;;;;;17.33;7.90;;;;;;;3.13;71.76;101002.84;4407494;32;33607;-65
2022/01/14 07:17:40;;;;;;;17.77;7.62;;;;;;;3.17;71.56;100998.91;4410826;32;33214;-62
2022/01/14 07:20:12;;;;;;;16.35;7.03;;;;;;;3.01;72.20;101000.78;4412108;32;34016;-63
2022/01/14 07:22:41;;;;;;;19.55;7.68;;;;;;;3.15;71.98;101006.44;4392068;32;33566;-64
2022/01/14 07:25:10;;;;;;;19.10;7.03;;;;;;;3.19;71.43;100994.81;4398573;32;34892;-63
2022/01/14 07:27:37;;;;;;;21.95;8.55;;;;;;;3.35;71.01;101000.59;4411265;32;33598;-64
2022/01/14 07:30:06;;;;;;;18.62;10.10;;;;;;;3.35;70.33;100998.03;4398967;32;35390;-64
2022/01/14 07:32:33;;;;;;;23.83;12.18;;;;;;;2.42;73.72;100990.13;4406905;32;34227;-61
2022/01/14 07:35:02;;;;;;;27.05;10.55;;;;;;;2.04;75.55;100987.31;4393140;32;34535;-62
2022/01/14 07:37:30;;;;;;;25.10;10.85;;;;;;;2.07;76.06;100987.62;4406647;32;33821;-63
2022/01/14 07:39:57;;;;;;;23.77;9.77;;;;;;;2.09;75.77;100983.56;4406675;32;33791;-65
2022/01/14 07:42:25;;;;;;;24.05;10.68;;;;;;;2.12;76.64;100982.94;4407596;32;33414;-62
2022/01/14 07:44:53;;;;;;;19.30;8.95;;;;;;;2.53;74.61;100988.59;4405276;32;33699;-63
2022/01/14 07:47:21;;;;;;;22.45;9.77;;;;;;;2.86;73.69;100996.03;4394425;32;33741;-66
2022/01/14 07:49:50;;;;;;;20.85;8.07;;;;;;;3.33;71.47;100994.44;4406812;32;33713;-62
2022/01/14 07:52:18;;;;;;;20.35;8.57;;;;;;;3.67;70.67;100997.53;4395108;32;32921;-64
2022/01/14 07:54:45;;;;;;;18.50;8.07;;;;;;;3.92;69.67;100997.19;4405543;32;33669;-65
2022/01/14 07:57:13;;;;;;;15.95;7.15;;;;;;;4.37;67.87;100999.50;4407333;32;34386;-64
2022/01/14 07:59:41;;;;;;;18.37;8.60;;;;;;;4.32;67.91;101000.75;4402865;32;34082;-64
2022/01/14 08:02:08;;;;;;;19.52;8.68;;;;;;;4.34;67.82;100999.22;4405698;32;34047;-64
2022/01/14 08:04:37;;;;;;;21.77;8.15;;;;;;;4.57;67.13;101003.81;4399350;32;33912;-65
2022/01/14 08:07:10;;;;;;;19.67;7.55;;;;;;;4.77;66.01;101003.00;4388504;32;34605;-65
2022/01/14 08:09:39;;;;;;;17.05;7.57;;;;;;;4.08;68.28;100994.34;4371506;32;34176;-63
2022/01/14 08:12:08;;;;;;;20.08;7.97;;;;;;;4.77;66.41;101003.00;4391609;32;31875;-64
2022/01/14 08:14:37;;;;;;;18.12;7.30;;;;;;;4.96;65.27;100997.78;4387772;32;33609;-64
2022/01/14 08:17:05;;;;;;;15.40;6.43;;;;;;;5.07;65.09;100988.44;4406718;32;33774;-64
2022/01/14 08:19:33;;;;;;;15.43;6.90;;;;;;;4.72;66.22;100994.88;4409538;32;33881;-65
2022/01/14 08:22:04;;;;;;;14.90;7.03;;;;;;;4.65;66.11;100981.38;4377703;32;34167;-64
2022/01/14 08:24:33;;;;;;;18.48;7.55;;;;;;;4.80;65.78;100982.72;4408219;32;34626;-65
2022/01/14 08:27:02;;;;;;;18.17;8.05;;;;;;;4.86;65.46;100978.09;4407844;32;34624;-65
2022/01/14 08:29:30;;;;;;;18.17;7.40;;;;;;;4.73;65.95;100978.75;4406477;32;34174;-64
2022/01/14 08:31:58;;;;;;;14.65;7.50;;;;;;;4.50;66.63;100966.47;4370235;32;33451;-62
2022/01/14 08:34:27;;;;;;;18.05;7.35;;;;;;;4.89;65.16;100962.97;4406755;32;34577;-65
2022/01/14 08:36:55;;;;;;;15.20;7.45;;;;;;;5.18;64.29;100966.25;4415685;32;34470;-62
2022/01/14 08:39:23;;;;;;;18.00;6.82;;;;;;;4.52;66.44;100957.25;4407984;32;33585;-64
2022/01/14 08:41:50;;;;;;;19.50;7.57;;;;;;;4.62;66.58;100965.75;4407175;32;33693;-65
2022/01/14 08:44:19;;;;;;;15.75;6.85;;;;;;;4.78;66.03;100963.72;4394276;32;33611;-65
2022/01/14 08:46:51;;;;;;;16.40;6.85;;;;;;;5.21;64.32;100962.25;4405701;32;34649;-63
2022/01/14 08:49:19;;;;;;;17.73;6.70;;;;;;;4.68;65.73;100956.00;4402413;32;34534;-63
2022/01/14 08:51:47;;;;;;;18.52;8.18;;;;;;;4.98;65.01;100951.69;4405090;32;33215;-64
2022/01/14 08:54:19;;;;;;;24.55;10.70;;;;;;;5.08;64.93;100951.69;4406606;32;34074;-64
2022/01/14 08:56:46;;;;;;;36.55;12.32;;;;;;;4.96;65.42;100942.97;4405790;32;33770;-65
2022/01/14 08:59:17;;;;;;;41.72;14.65;;;;;;;5.09;65.17;100944.12;4406395;32;33872;-61
2022/01/14 09:01:45;;;;;;;21.58;9.05;;;;;;;5.17;64.77;100946.47;4405172;32;33742;-61
2022/01/14 09:04:14;;;;;;;30.10;10.90;;;;;;;4.79;66.11;100937.31;4391067;32;34833;-62
2022/01/14 09:06:41;;;;;;;31.02;11.12;;;;;;;4.97;65.83;100937.97;4389467;32;34429;-63
2022/01/14 09:09:10;;;;;;;65.30;19.83;;;;;;;5.18;65.14;100941.47;4403316;32;33971;-63
2022/01/14 09:11:37;;;;;;;18.62;7.43;;;;;;;5.47;63.99;100930.16;4405307;32;34832;-65
2022/01/14 09:14:06;;;;;;;16.12;6.40;;;;;;;5.06;65.33;100941.31;4392133;32;33871;-65
2022/01/14 09:16:34;;;;;;;33.03;13.75;;;;;;;5.34;64.28;100933.34;4405352;32;33935;-63
2022/01/14 09:19:02;;;;;;;18.30;7.60;;;;;;;5.54;64.13;100932.44;4404378;32;34242;-61
2022/01/14 09:21:30;;;;;;;17.30;6.70;;;;;;;5.40;64.65;100932.97;4405853;32;33454;-61
2022/01/14 09:24:03;;;;;;;18.60;7.55;;;;;;;5.54;64.00;100922.16;4398326;32;34473;-63
2022/01/14 09:26:33;;;;;;;18.25;7.18;;;;;;;5.76;63.01;100918.81;4399366;32;34635;-64
2022/01/14 09:29:03;;;;;;;14.35;6.05;;;;;;;5.89;62.10;100896.78;4397069;32;33233;-61
2022/01/14 09:31:31;;;;;;;14.13;6.25;;;;;;;5.73;62.71;100898.88;4408550;32;33528;-63
2022/01/14 09:33:59;;;;;;;16.40;7.43;;;;;;;5.78;62.23;100892.44;4410856;32;33853;-62
2022/01/14 09:36:27;;;;;;;13.65;6.28;;;;;;;5.86;62.28;100896.50;4401620;32;34657;-64
2022/01/14 09:38:55;;;;;;;14.13;6.35;;;;;;;6.10;61.09;100897.66;4405456;32;34047;-63
2022/01/14 09:41:22;;;;;;;14.45;6.78;;;;;;;6.28;60.66;100894.75;4402976;32;33303;-62
2022/01/14 09:43:50;;;;;;;12.15;5.00;;;;;;;6.42;60.20;100899.28;4404406;32;35049;-62
2022/01/14 09:46:18;;;;;;;14.00;5.75;;;;;;;6.18;60.72;100880.25;4405396;32;33849;-64
2022/01/14 09:48:47;;;;;;;11.57;5.62;;;;;;;6.38;60.29;100894.69;4403866;32;34694;-64
2022/01/14 09:51:15;;;;;;;9.18;4.32;;;;;;;6.27;60.17;100895.50;4403001;32;33462;-61
2022/01/14 09:53:43;;;;;;;14.68;5.40;;;;;;;6.45;59.69;100889.25;4398003;32;34301;-63
2022/01/14 09:56:14;;;;;;;10.60;4.40;;;;;;;6.45;59.84;100896.97;4406498;32;34452;-62
2022/01/14 09:58:46;;;;;;;9.60;4.03;;;;;;;6.47;59.44;100890.25;4369512;32;33633;-62
2022/01/14 10:01:20;;;;;;;11.82;4.90;;;;;;;6.44;59.57;100884.87;4386980;32;32927;-61
2022/01/14 10:03:52;;;;;;;9.65;5.47;;;;;;;6.39;59.97;100890.41;4401719;32;33617;-62
2022/01/14 10:06:38;;;;;;;12.95;4.80;;;;;;;6.42;59.71;100865.81;4400835;32;33690;-62
2022/01/14 10:09:11;;;;;;;11.85;4.78;;;;;;;6.44;59.34;100847.94;4393902;32;33636;-62
2022/01/14 10:11:43;;;;;;;12.02;5.43;;;;;;;6.46;59.15;100852.41;4386803;32;34151;-63
2022/01/14 10:14:15;;;;;;;7.85;4.03;;;;;;;6.52;59.12;100851.09;4380824;32;33671;-63
2022/01/14 10:16:44;;;;;;;16.90;5.90;;;;;;;6.62;58.17;100840.72;4368143;32;33317;-63
2022/01/14 10:19:38;;;;;;;11.23;5.07;;;;;;;6.63;58.02;100845.12;4397344;32;33956;-62
2022/01/14 10:22:21;;;;;;;10.10;3.87;;;;;;;6.68;57.81;100836.97;4407082;32;33010;-62
2022/01/14 10:25:02;;;;;;;11.75;5.57;;;;;;;6.69;57.57;100825.00;4401012;32;34184;-62
2022/01/14 10:27:42;;;;;;;12.45;5.35;;;;;;;6.62;57.96;100838.16;4381242;32;34818;-62
2022/01/14 10:30:18;;;;;;;12.50;4.57;;;;;;;6.76;57.50;100836.63;4412841;32;34224;-62
2022/01/14 10:32:53;;;;;;;11.02;4.85;;;;;;;6.75;57.51;100819.41;4417064;32;34046;-62
2022/01/14 10:35:22;;;;;;;15.68;5.80;;;;;;;6.67;57.09;100822.28;4406868;32;33820;-63
2022/01/14 10:37:50;;;;;;;9.30;4.18;;;;;;;6.71;57.53;100823.44;4405884;32;33805;-62
2022/01/14 10:40:21;;;;;;;8.95;4.12;;;;;;;6.93;56.74;100823.37;4392360;32;33651;-63
2022/01/14 10:42:51;;;;;;;11.18;5.10;;;;;;;6.94;56.57;100806.25;4406965;32;32751;-63
2022/01/14 10:45:33;;;;;;;10.43;4.78;;;;;;;6.89;57.32;100814.53;4394610;32;33419;-62
2022/01/14 10:48:03;;;;;;;9.88;3.83;;;;;;;7.06;56.28;100817.47;4407006;32;33735;-62
2022/01/14 10:50:36;;;;;;;10.52;5.12;;;;;;;6.92;56.61;100797.53;4385120;32;32922;-62
2022/01/14 10:53:22;;;;;;;10.95;5.03;;;;;;;6.92;56.81;100771.75;4399308;32;34165;-62
2022/01/14 10:55:58;;;;;;;15.55;5.30;;;;;;;6.95;56.56;100788.31;4396871;32;32198;-62
2022/01/14 10:58:31;;;;;;;10.57;4.93;;;;;;;7.06;56.39;100802.91;4412377;32;33805;-62
2022/01/14 11:01:12;;;;;;;9.90;4.90;;;;;;;7.25;55.85;100799.13;4409871;32;34868;-63
2022/01/14 11:03:42;;;;;;;11.52;4.97;;;;;;;7.39;55.23;100803.59;4405146;32;33901;-62
2022/01/14 11:06:20;;;;;;;14.18;5.60;;;;;;;7.04;56.08;100798.44;4390531;32;33655;-62
2022/01/14 11:08:56;;;;;;;13.98;5.47;;;;;;;7.06;56.58;100786.56;4406979;32;34731;-61
2022/01/14 11:11:25;;;;;;;10.45;4.78;;;;;;;7.51;55.44;100795.88;4404320;32;34543;-62
2022/01/14 11:13:53;;;;;;;12.30;4.72;;;;;;;7.60;54.58;100786.22;4406877;32;34002;-62
2022/01/14 11:16:21;;;;;;;11.32;4.85;;;;;;;7.91;53.88;100791.00;4406614;32;34111;-62
2022/01/14 11:18:49;;;;;;;12.52;5.35;;;;;;;7.67;53.97;100780.72;4409355;32;33987;-61
2022/01/14 11:24:04;;;;;;;11.55;4.62;;;;;;;7.79;53.73;100780.72;4406943;32;33138;-62
2022/01/14 11:26:35;;;;;;;11.73;4.45;;;;;;;7.67;54.13;100780.72;4394356;32;33798;-63
2022/01/14 11:29:17;;;;;;;11.45;5.12;;;;;;;7.73;54.38;100772.53;4390378;32;33672;-63
2022/01/14 11:31:45;;;;;;;12.45;5.25;;;;;;;7.57;54.32;100773.13;4395730;32;34098;-62
2022/01/14 11:34:35;;;;;;;10.45;5.30;;;;;;;7.53;54.67;100763.34;4393223;32;34274;-62
2022/01/14 11:37:06;;;;;;;10.05;4.90;;;;;;;7.31;55.31;100767.75;4402963;32;34004;-62
2022/01/14 11:39:38;;;;;;;10.98;4.65;;;;;;;7.47;54.83;100744.88;4406913;32;33167;-62
2022/01/14 11:42:14;;;;;;;10.27;3.80;;;;;;;7.23;55.98;100750.03;4390022;32;34560;-62
2022/01/14 11:44:54;;;;;;;12.10;5.00;;;;;;;7.41;55.38;100759.91;4407295;32;33892;-63
2022/01/14 11:47:36;;;;;;;12.88;5.43;;;;;;;7.44;54.94;100734.34;4393604;32;33595;-62
2022/01/14 11:50:23;;;;;;;10.30;5.00;;;;;;;7.34;55.54;100747.34;4394819;32;33666;-62
2022/01/14 11:52:51;;;;;;;13.93;6.25;;;;;;;7.45;55.59;100742.19;4392895;32;33312;-62
2022/01/14 11:55:22;;;;;;;12.20;4.97;;;;;;;7.77;54.75;100734.97;4406742;32;33109;-62
2022/01/14 11:58:03;;;;;;;13.20;5.62;;;;;;;7.87;54.45;100721.94;4390308;32;33133;-63